Time;durP1;ratioP1;P1;durP2;ratioP2;P2;SDS_P1;SDS_P2;PMS_P1;PMS_P2;Temp;Humidity;BMP_temperature;BMP_pressure;BME280_temperature;BME280_humidity;BME280_pressure;Samples;Min_cycle;Max_cycle;Signal;HPM_P1;HPM_P2
2021/07/20 00:00:12;;;;;;;;;;;;;;;27.56;48.32;99939.39;1776469;79;21099;-38
2021/07/20 00:02:43;;;;;;;;;;;;;;;27.56;48.33;99943.58;1776002;79;20228;-39
2021/07/20 00:05:10;;;;;;;;;;;;;;;27.56;48.35;99940.20;1775266;79;20180;-38
2021/07/20 00:07:36;;;;;;;;;;;;;;;27.55;48.38;99935.80;1775484;79;20605;-39
2021/07/20 00:10:08;;;;;;;;;;;;;;;27.57;48.39;99939.61;1776377;79;20124;-38
2021/07/20 00:12:34;;;;;;;;;;;;;;;27.55;48.42;99935.80;1777979;79;20598;-38
2021/07/20 00:15:00;;;;;;;;;;;;;;;27.56;48.42;99936.01;1774455;79;21453;-39
2021/07/20 00:17:28;;;;;;;;;;;;;;;27.58;48.46;99941.22;1777219;79;20263;-38
2021/07/20 00:19:54;;;;;;;;;;;;;;;27.57;48.47;99934.83;1773669;79;20268;-38
2021/07/20 00:22:20;;;;;;;;;;;;;;;27.56;48.50;99929.02;1779734;79;21484;-38
2021/07/20 00:24:46;;;;;;;;;;;;;;;27.56;48.51;99928.22;1777758;79;21856;-38
2021/07/20 00:27:11;;;;;;;;;;;;;;;27.56;48.52;99922.03;1776034;79;20230;-39
2021/07/20 00:29:38;;;;;;;;;;;;;;;27.56;48.54;99922.63;1780726;79;20214;-38
2021/07/20 00:32:05;;;;;;;;;;;;;;;27.56;48.58;99919.83;1778256;79;20260;-38
2021/07/20 00:34:30;;;;;;;;;;;;;;;27.56;48.60;99916.45;1772187;79;20454;-39
2021/07/20 00:36:56;;;;;;;;;;;;;;;27.56;48.60;99920.64;1777327;79;21178;-39
2021/07/20 00:39:22;;;;;;;;;;;;;;;27.56;48.62;99919.83;1778174;79;20547;-38
2021/07/20 00:41:48;;;;;;;;;;;;;;;27.56;48.64;99919.83;1777730;79;20224;-38
2021/07/20 00:44:14;;;;;;;;;;;;;;;27.56;48.64;99913.66;1774344;79;20240;-38
2021/07/20 00:46:40;;;;;;;;;;;;;;;27.57;48.68;99917.25;1773899;79;20410;-38
2021/07/20 00:49:06;;;;;;;;;;;;;;;27.56;48.68;99913.66;1773984;79;21144;-39
2021/07/20 00:51:31;;;;;;;;;;;;;;;27.56;48.70;99911.45;1772433;79;20512;-41
2021/07/20 00:53:57;;;;;;;;;;;;;;;27.56;48.71;99912.26;1773795;79;20223;-38
2021/07/20 00:56:23;;;;;;;;;;;;;;;27.57;48.75;99904.68;1776331;79;20289;-38
2021/07/20 00:58:49;;;;;;;;;;;;;;;27.56;48.76;99901.08;1777653;79;20732;-38
2021/07/20 01:01:15;;;;;;;;;;;;;;;27.56;48.77;99903.88;1743215;80;21946;-38
2021/07/20 01:03:41;;;;;;;;;;;;;;;27.55;48.80;99898.07;1777159;79;20186;-38
2021/07/20 01:06:07;;;;;;;;;;;;;;;27.56;48.82;99903.88;1777303;79;20202;-38
2021/07/20 01:08:33;;;;;;;;;;;;;;;27.57;48.85;99897.70;1774953;79;20260;-38
2021/07/20 01:11:00;;;;;;;;;;;;;;;27.56;48.82;99900.27;1774944;79;20815;-38
2021/07/20 01:13:26;;;;;;;;;;;;;;;27.56;48.86;99904.47;1776772;79;21166;-38
2021/07/20 01:15:52;;;;;;;;;;;;;;;27.56;48.89;99904.47;1777353;79;20255;-39
2021/07/20 01:18:18;;;;;;;;;;;;;;;27.56;48.92;99901.67;1774919;79;20282;-39
2021/07/20 01:20:44;;;;;;;;;;;;;;;27.56;48.92;99898.88;1743960;79;20719;-38
2021/07/20 01:23:20;;;;;;;;;;;;;;;27.57;48.95;99901.89;1750666;80;20159;-39
2021/07/20 01:25:46;;;;;;;;;;;;;;;27.56;48.96;99902.48;1776342;79;21082;-39
2021/07/20 01:28:17;;;;;;;;;;;;;;;27.56;49.00;99898.88;1775609;79;20237;-39
2021/07/20 01:30:43;;;;;;;;;;;;;;;27.55;49.01;99900.87;1773601;79;20168;-39
2021/07/20 01:33:09;;;;;;;;;;;;;;;27.57;49.05;99903.28;1775655;79;20166;-38
2021/07/20 01:35:35;;;;;;;;;;;;;;;27.56;49.03;99900.27;1775631;79;20183;-38
2021/07/20 01:38:01;;;;;;;;;;;;;;;27.55;49.09;99891.67;1775376;79;20993;-38
2021/07/20 01:40:27;;;;;;;;;;;;;;;27.56;49.11;99891.89;1746395;80;21590;-38
2021/07/20 01:42:53;;;;;;;;;;;;;;;27.56;49.13;99894.09;1745556;79;20250;-38
2021/07/20 01:45:19;;;;;;;;;;;;;;;27.55;49.15;99896.67;1777703;79;20172;-38
2021/07/20 01:47:45;;;;;;;;;;;;;;;27.56;49.16;99901.67;1776640;79;21731;-38
2021/07/20 01:50:14;;;;;;;;;;;;;;;27.55;49.21;99901.45;1775690;79;23200;-38
2021/07/20 01:52:40;;;;;;;;;;;;;;;27.55;49.22;99907.05;1766747;79;20170;-38
2021/07/20 01:55:07;;;;;;;;;;;;;;;27.54;49.28;99900.65;1763511;79;20288;-38
2021/07/20 01:57:33;;;;;;;;;;;;;;;27.54;49.26;99906.23;1760789;79;20431;-39
2021/07/20 01:59:59;;;;;;;;;;;;;;;27.55;49.29;99908.44;1761484;80;20221;-38
2021/07/20 02:02:32;;;;;;;;;;;;;;;27.56;49.32;99904.47;1734632;81;23269;-38
2021/07/20 02:08:25;;;;;;;;;;;;;;;27.55;49.35;99902.86;1762389;80;20499;-39
2021/07/20 02:10:08;;;;;;;;;;;;;;;27.55;49.38;99907.05;1744236;80;20232;-39
2021/07/20 02:12:37;;;;;;;;;;;;;;;27.54;49.39;99897.08;1761591;80;20493;-37
2021/07/20 02:15:02;;;;;;;;;;;;;;;27.54;49.42;99890.88;1760820;80;21153;-38
2021/07/20 02:17:28;;;;;;;;;;;;;;;27.54;49.43;99895.69;1757919;80;20286;-38
2021/07/20 02:19:58;;;;;;;;;;;;;;;27.54;49.47;99899.88;1761964;80;20297;-38
2021/07/20 02:22:24;;;;;;;;;;;;;;;27.54;49.48;99901.27;1760324;81;20422;-38
2021/07/20 02:24:51;;;;;;;;;;;;;;;27.53;49.52;99898.27;1760505;80;20414;-39
2021/07/20 02:27:18;;;;;;;;;;;;;;;27.53;49.53;99899.07;1761755;80;21056;-38
2021/07/20 02:29:44;;;;;;;;;;;;;;;27.53;49.54;99905.25;1762868;80;20392;-38
2021/07/20 02:32:10;;;;;;;;;;;;;;;27.53;49.58;99900.47;1763525;80;20211;-38
2021/07/20 02:34:36;;;;;;;;;;;;;;;27.52;49.59;99900.84;1759311;80;20177;-39
2021/07/20 02:37:02;;;;;;;;;;;;;;;27.52;49.61;99903.05;1760921;80;20419;-38
2021/07/20 02:39:28;;;;;;;;;;;;;;;27.52;49.63;99908.63;1760957;80;21124;-39
2021/07/20 02:41:54;;;;;;;;;;;;;;;27.51;49.63;99911.21;1760846;80;21583;-38
2021/07/20 02:44:22;;;;;;;;;;;;;;;27.52;49.68;99909.22;1758711;80;20192;-38
2021/07/20 02:46:48;;;;;;;;;;;;;;;27.52;49.68;99899.45;1756578;80;20160;-38
2021/07/20 02:49:13;;;;;;;;;;;;;;;27.51;49.70;99898.64;1762384;80;20280;-39
2021/07/20 02:51:39;;;;;;;;;;;;;;;27.51;49.73;99897.24;1759596;80;21173;-39
2021/07/20 02:54:05;;;;;;;;;;;;;;;27.52;49.75;99899.45;1733909;81;20384;-39
2021/07/20 02:56:31;;;;;;;;;;;;;;;27.51;49.76;99898.64;1763878;80;20199;-39
2021/07/20 02:59:03;;;;;;;;;;;;;;;27.51;49.79;99901.43;1763274;80;20238;-39
2021/07/20 03:01:29;;;;;;;;;;;;;;;27.51;49.81;99909.01;1762800;80;20181;-43
2021/07/20 03:03:55;;;;;;;;;;;;;;;27.51;49.85;99902.83;1767702;80;21126;-39
2021/07/20 03:06:22;;;;;;;;;;;;;;;27.51;49.87;99902.83;1765674;80;20239;-38
2021/07/20 03:08:48;;;;;;;;;;;;;;;27.51;49.88;99906.22;1768267;80;20191;-39
2021/07/20 03:11:15;;;;;;;;;;;;;;;27.51;49.88;99900.03;1768118;80;20167;-39
2021/07/20 03:13:48;;;;;;;;;;;;;;;27.51;49.92;99895.04;1763756;79;20158;-38
2021/07/20 03:16:14;;;;;;;;;;;;;;;27.50;49.93;99895.63;1768532;79;21137;-38
2021/07/20 03:18:43;;;;;;;;;;;;;;;27.51;49.95;99907.61;1773372;79;20218;-38
2021/07/20 03:21:09;;;;;;;;;;;;;;;27.51;49.98;99917.39;1733276;80;20234;-39
2021/07/20 03:23:35;;;;;;;;;;;;;;;27.51;49.99;99920.19;1709881;80;20158;-38
2021/07/20 03:26:01;;;;;;;;;;;;;;;27.51;50.01;99924.37;1765432;80;20977;-38
2021/07/20 03:28:27;;;;;;;;;;;;;;;27.51;50.02;99927.17;1739061;80;21926;-38
2021/07/20 03:30:53;;;;;;;;;;;;;;;27.51;50.04;99927.17;1768203;79;20141;-38
2021/07/20 03:33:21;;;;;;;;;;;;;;;27.51;50.05;99925.18;1759666;79;20258;-39
2021/07/20 03:35:49;;;;;;;;;;;;;;;27.50;50.07;99923.56;1770605;80;20244;-39
2021/07/20 03:38:16;;;;;;;;;;;;;;;27.50;50.08;99932.54;1769059;79;20176;-39
2021/07/20 03:40:42;;;;;;;;;;;;;;;27.50;50.09;99935.33;1792435;78;20984;-38
2021/07/20 03:43:07;;;;;;;;;;;;;;;27.51;50.12;99946.73;1764529;80;21519;-39
2021/07/20 03:45:33;;;;;;;;;;;;;;;27.49;50.14;99948.53;1732440;81;20166;-39
2021/07/20 03:47:59;;;;;;;;;;;;;;;27.51;50.15;99956.50;1788533;79;20695;-38
2021/07/20 03:50:25;;;;;;;;;;;;;;;27.50;50.18;99954.30;1785951;78;20256;-39
2021/07/20 03:52:51;;;;;;;;;;;;;;;27.51;50.20;99949.52;1784797;78;21186;-38
2021/07/20 03:55:17;;;;;;;;;;;;;;;27.51;50.23;99963.48;1752477;80;20405;-38
2021/07/20 03:57:43;;;;;;;;;;;;;;;27.50;50.24;99959.89;1759507;80;20189;-38
2021/07/20 04:00:10;;;;;;;;;;;;;;;27.51;50.24;99964.88;1775574;79;20143;-39
2021/07/20 04:03:40;;;;;;;;;;;;;;;27.50;50.27;99956.28;1773814;79;20499;-38
2021/07/20 04:05:17;;;;;;;;;;;;;;;27.51;50.30;99963.48;1758139;79;21197;-39
2021/07/20 04:07:44;;;;;;;;;;;;;;;27.50;50.31;99963.27;1776198;79;20509;-38
2021/07/20 04:10:12;;;;;;;;;;;;;;;27.50;50.33;99962.69;1775755;79;20190;-39
2021/07/20 04:12:38;;;;;;;;;;;;;;;27.50;50.37;99961.88;1775445;79;20100;-38
2021/07/20 04:15:05;;;;;;;;;;;;;;;27.50;50.37;99960.48;1781765;79;20192;-38
2021/07/20 04:17:33;;;;;;;;;;;;;;;27.48;50.38;99959.48;1777563;79;21971;-40
2021/07/20 04:19:59;;;;;;;;;;;;;;;27.50;50.43;99953.49;1779345;79;20171;-38
2021/07/20 04:22:24;;;;;;;;;;;;;;;27.49;50.45;99960.30;1775449;79;20819;-39
2021/07/20 04:24:50;;;;;;;;;;;;;;;27.50;50.47;99960.48;1780036;79;20176;-39
2021/07/20 04:27:16;;;;;;;;;;;;;;;27.50;50.47;99961.28;1746912;80;20746;-38
2021/07/20 04:29:42;;;;;;;;;;;;;;;27.49;50.50;99956.91;1774471;79;21844;-39
2021/07/20 04:32:09;;;;;;;;;;;;;;;27.50;50.54;99961.88;1779526;79;20166;-38
2021/07/20 04:34:35;;;;;;;;;;;;;;;27.50;50.57;99968.27;1773264;79;20194;-39
2021/07/20 04:37:01;;;;;;;;;;;;;;;27.50;50.58;99961.88;1777233;79;20197;-38
2021/07/20 04:39:28;;;;;;;;;;;;;;;27.50;50.60;99959.08;1782158;79;20298;-39
2021/07/20 04:41:54;;;;;;;;;;;;;;;27.49;50.61;99956.10;1774496;79;21109;-38
2021/07/20 04:44:21;;;;;;;;;;;;;;;27.49;50.64;99961.69;1747846;79;21701;-38
2021/07/20 04:46:47;;;;;;;;;;;;;;;27.50;50.65;99949.30;1773497;79;20244;-39
2021/07/20 04:49:13;;;;;;;;;;;;;;;27.50;50.69;99954.89;1778665;79;20461;-38
2021/07/20 04:51:39;;;;;;;;;;;;;;;27.49;50.70;99956.91;1776736;79;20224;-38
2021/07/20 04:54:05;;;;;;;;;;;;;;;27.48;50.73;99960.88;1784210;79;21113;-38
2021/07/20 04:56:31;;;;;;;;;;;;;;;27.49;50.72;99968.09;1794504;79;20210;-37
2021/07/20 04:58:57;;;;;;;;;;;;;;;27.49;50.77;99964.48;1789104;79;20437;-38
2021/07/20 05:01:24;;;;;;;;;;;;;;;27.50;50.80;99960.48;1792999;79;20139;-38
2021/07/20 05:03:50;;;;;;;;;;;;;;;27.49;50.84;99963.89;1792230;79;20150;-39
2021/07/20 05:06:16;;;;;;;;;;;;;;;27.50;50.86;99963.27;1792371;79;21317;-38
2021/07/20 05:08:42;;;;;;;;;;;;;;;27.51;50.88;99962.90;1767139;79;20196;-38
2021/07/20 05:11:08;;;;;;;;;;;;;;;27.51;50.90;99957.91;1795075;79;20140;-38
2021/07/20 05:13:34;;;;;;;;;;;;;;;27.52;50.91;99956.72;1802394;78;20145;-39
2021/07/20 05:16:01;;;;;;;;;;;;;;;27.52;50.94;99956.72;1803264;78;20821;-39
2021/07/20 05:18:26;;;;;;;;;;;;;;;27.53;50.92;99965.32;1803543;78;21103;-39
2021/07/20 05:20:58;;;;;;;;;;;;;;;27.54;50.95;99965.53;1780031;78;20183;-38
2021/07/20 05:23:24;;;;;;;;;;;;;;;27.54;50.96;99968.33;1766379;79;20146;-39
2021/07/20 05:25:55;;;;;;;;;;;;;;;27.55;50.98;99979.09;1772625;79;20419;-39
2021/07/20 05:28:21;;;;;;;;;;;;;;;27.57;51.01;99982.33;1777755;79;20256;-39
2021/07/20 05:30:48;;;;;;;;;;;;;;;27.56;50.99;99984.91;1797176;78;21016;-38
2021/07/20 05:33:15;;;;;;;;;;;;;;;27.57;51.01;99985.13;1794676;78;20199;-39
2021/07/20 05:35:41;;;;;;;;;;;;;;;27.58;51.03;99986.70;1767132;79;20187;-39
2021/07/20 05:38:07;;;;;;;;;;;;;;;27.59;51.05;99991.11;1791007;78;20198;-38
2021/07/20 05:40:33;;;;;;;;;;;;;;;27.60;51.04;99987.73;1793080;78;20230;-38
2021/07/20 05:42:59;;;;;;;;;;;;;;;27.61;51.04;99988.75;1794019;78;21346;-39
2021/07/20 05:45:25;;;;;;;;;;;;;;;27.62;51.04;100000.15;1792051;78;20230;-38
2021/07/20 05:47:51;;;;;;;;;;;;;;;27.62;51.04;99986.77;1794143;78;20166;-38
2021/07/20 05:50:18;;;;;;;;;;;;;;;27.62;51.04;99987.57;1797433;78;20138;-39
2021/07/20 05:52:47;;;;;;;;;;;;;;;27.64;51.03;99989.96;1767049;79;20170;-39
2021/07/20 05:55:13;;;;;;;;;;;;;;;27.64;51.01;99989.38;1779411;79;21156;-39
2021/07/20 05:57:40;;;;;;;;;;;;;;;27.64;51.03;99992.75;1779593;79;20200;-38
2021/07/20 06:00:07;;;;;;;;;;;;;;;27.66;51.01;100004.37;1777486;79;20211;-39
2021/07/20 06:02:33;;;;;;;;;;;;;;;27.66;51.00;99999.58;1778786;79;20386;-38
2021/07/20 06:05:01;;;;;;;;;;;;;;;27.67;50.97;99999.77;1721114;80;20178;-38
2021/07/20 06:07:28;;;;;;;;;;;;;;;27.69;50.95;100006.38;1772837;79;21119;-39
2021/07/20 06:09:54;;;;;;;;;;;;;;;27.69;50.92;100002.19;1746265;79;20215;-39
2021/07/20 06:12:21;;;;;;;;;;;;;;;27.70;50.92;100001.02;1780369;79;20198;-38
2021/07/20 06:14:47;;;;;;;;;;;;;;;27.70;50.91;99997.62;1779965;79;20188;-38
2021/07/20 06:17:13;;;;;;;;;;;;;;;27.70;50.89;99993.44;1774542;79;20298;-38
2021/07/20 06:19:39;;;;;;;;;;;;;;;27.71;50.90;99996.41;1779677;79;22240;-39
2021/07/20 06:22:08;;;;;;;;;;;;;;;27.71;50.88;100001.20;1773271;79;20406;-39
2021/07/20 06:24:36;;;;;;;;;;;;;;;27.71;50.88;99999.20;1774585;79;20492;-39
2021/07/20 06:27:03;;;;;;;;;;;;;;;27.73;50.83;99998.03;1775048;79;20427;-39
2021/07/20 06:29:29;;;;;;;;;;;;;;;27.73;50.85;99983.46;1775950;79;20183;-39
2021/07/20 06:31:55;;;;;;;;;;;;;;;27.73;50.82;99984.86;1777284;79;21203;-39
2021/07/20 06:34:21;;;;;;;;;;;;;;;27.73;50.85;99980.67;1774587;79;20204;-38
2021/07/20 06:36:47;;;;;;;;;;;;;;;27.74;50.89;99981.47;1781157;79;20824;-38
2021/07/20 06:39:13;;;;;;;;;;;;;;;27.75;50.89;99979.70;1773800;79;20155;-38
2021/07/20 06:41:39;;;;;;;;;;;;;;;27.77;50.93;99979.30;1774984;79;20188;-39
2021/07/20 06:44:05;;;;;;;;;;;;;;;27.77;50.97;99975.91;1775820;79;21070;-39
2021/07/20 06:46:31;;;;;;;;;;;;;;;27.79;50.99;99978.33;1773981;79;20188;-39
2021/07/20 06:48:57;;;;;;;;;;;;;;;27.80;50.99;99982.70;1776919;79;20261;-39
2021/07/20 06:51:24;;;;;;;;;;;;;;;27.80;51.05;99980.72;1776655;79;20490;-38
2021/07/20 06:53:52;;;;;;;;;;;;;;;27.82;51.03;99980.34;1775673;79;20278;-39
2021/07/20 06:56:29;;;;;;;;;;;;;;;27.82;51.07;99983.14;1773262;79;21115;-41
2021/07/20 06:58:55;;;;;;;;;;;;;;;27.82;51.09;99975.56;1775378;79;20203;-39
2021/07/20 07:01:21;;;;;;;;;;;;;;;27.83;51.10;99977.17;1774214;79;20463;-39
2021/07/20 07:04:23;;;;;;;;;;;;;;;27.83;51.13;99972.98;1750445;79;20197;-39
2021/07/20 07:06:50;;;;;;;;;;;;;;;27.83;51.20;99984.16;1774839;79;20147;-38
2021/07/20 07:09:16;;;;;;;;;;;;;;;27.84;51.25;99986.36;1775410;79;21262;-38
2021/07/20 07:11:43;;;;;;;;;;;;;;;27.83;51.22;99985.56;1771616;79;20448;-39
2021/07/20 07:14:10;;;;;;;;;;;;;;;27.84;51.21;99985.74;1772913;79;20223;-39
2021/07/20 07:16:37;;;;;;;;;;;;;;;27.85;51.22;99983.75;1774118;79;20211;-38
2021/07/20 07:19:03;;;;;;;;;;;;;;;27.86;51.22;99993.16;1744841;79;20200;-38
2021/07/20 07:21:29;;;;;;;;;;;;;;;27.86;51.20;99979.78;1775738;79;21959;-39
2021/07/20 07:23:55;;;;;;;;;;;;;;;27.86;51.21;99982.57;1774862;79;20186;-39
2021/07/20 07:26:21;;;;;;;;;;;;;;;27.87;51.19;99978.00;1777665;79;20202;-39
2021/07/20 07:28:48;;;;;;;;;;;;;;;27.86;51.21;99981.98;1776500;79;20607;-39
2021/07/20 07:31:15;;;;;;;;;;;;;;;27.88;51.23;99981.60;1778183;79;20228;-39
2021/07/20 07:33:41;;;;;;;;;;;;;;;27.89;51.22;99988.78;1774771;79;21101;-38
2021/07/20 07:36:08;;;;;;;;;;;;;;;27.88;51.20;99987.20;1773221;79;20202;-39
2021/07/20 07:38:34;;;;;;;;;;;;;;;27.86;51.21;99984.78;1776002;79;20232;-38
2021/07/20 07:41:00;;;;;;;;;;;;;;;27.87;51.24;99989.19;1772143;79;20849;-38
2021/07/20 07:43:26;;;;;;;;;;;;;;;27.87;51.22;99981.39;1773578;79;20192;-39
2021/07/20 07:45:54;;;;;;;;;;;;;;;27.88;51.24;99982.38;1773859;79;21170;-38
2021/07/20 07:48:20;;;;;;;;;;;;;;;27.90;51.24;99984.80;1778115;79;20215;-39
2021/07/20 07:50:48;;;;;;;;;;;;;;;27.90;51.24;99987.00;1777007;79;20254;-39
2021/07/20 07:53:14;;;;;;;;;;;;;;;27.90;51.25;99981.41;1776750;79;20229;-39
2021/07/20 07:55:40;;;;;;;;;;;;;;;27.89;51.24;99979.80;1752238;80;20899;-38
2021/07/20 07:58:06;;;;;;;;;;;;;;;27.89;51.25;99973.41;1779545;80;21175;-39
2021/07/20 08:00:32;;;;;;;;;;;;;;;27.91;51.28;99972.44;1775479;80;20188;-40
2021/07/20 08:02:58;;;;;;;;;;;;;;;27.90;51.25;99961.04;1779015;80;20199;-39
2021/07/20 08:05:24;;;;;;;;;;;;;;;27.89;51.26;99965.82;1774030;79;20461;-39
2021/07/20 08:07:51;;;;;;;;;;;;;;;27.90;51.26;99963.23;1776347;80;20216;-39
2021/07/20 08:10:18;;;;;;;;;;;;;;;27.90;51.25;99960.45;1756514;80;21106;-38
2021/07/20 08:12:45;;;;;;;;;;;;;;;27.91;51.28;99969.05;1777479;80;20563;-38
2021/07/20 08:15:13;;;;;;;;;;;;;;;27.91;51.28;99963.45;1781563;80;20219;-39
2021/07/20 08:17:38;;;;;;;;;;;;;;;27.92;51.27;99961.47;1750710;79;20743;-38
2021/07/20 08:20:06;;;;;;;;;;;;;;;27.92;51.28;99963.64;1773149;79;20186;-38
2021/07/20 08:22:32;;;;;;;;;;;;;;;27.93;51.28;99964.45;1777527;79;21156;-39
2021/07/20 08:25:08;;;;;;;;;;;;;;;27.93;51.26;99963.86;1777934;80;20760;-39
2021/07/20 08:27:48;;;;;;;;;;;;;;;27.94;51.27;99963.27;1778739;79;20232;-39
2021/07/20 08:30:15;;;;;;;;;;;;;;;27.94;51.27;99967.45;1772955;79;20252;-39
2021/07/20 08:32:47;;;;;;;;;;;;;;;27.94;51.26;99968.86;1777865;80;20254;-38
2021/07/20 08:35:16;;;;;;;;;;;;;;;27.94;51.26;99972.45;1783507;80;21194;-39
2021/07/20 08:37:42;;;;;;;;;;;;;;;27.95;51.27;99973.27;1773155;79;20478;-39
2021/07/20 08:40:30;;;;;;;;;;;;;;;27.95;51.28;99971.27;1776973;80;20263;-39
2021/07/20 08:43:24;;;;;;;;;;;;;;;27.96;51.28;99970.69;1774113;79;20187;-39
2021/07/20 08:45:56;;;;;;;;;;;;;;;27.96;51.28;99974.28;1774680;79;20166;-39
2021/07/20 08:48:35;;;;;;;;;;;;;;;27.98;51.30;99976.08;1782993;79;21139;-39
2021/07/20 08:51:06;;;;;;;;;;;;;;;27.99;51.29;99978.28;1660506;84;20354;-39
2021/07/20 08:53:40;;;;;;;;;;;;;;;28.01;51.28;99970.30;1773283;80;20220;-39
2021/07/20 08:56:06;;;;;;;;;;;;;;;28.02;51.25;99967.12;1729563;80;20207;-38
2021/07/20 08:58:42;;;;;;;;;;;;;;;28.03;51.24;99970.13;1780128;79;20203;-38
2021/07/20 09:01:11;;;;;;;;;;;;;;;28.04;51.25;99964.75;1775309;79;20988;-39
2021/07/20 09:04:02;;;;;;;;;;;;;;;28.05;51.25;99966.96;1783836;79;20239;-39
2021/07/20 09:06:35;;;;;;;;;;;;;;;28.06;51.24;99971.34;1782857;79;20151;-39
2021/07/20 09:09:24;;;;;;;;;;;;;;;28.06;51.21;99967.95;1781278;79;20433;-38
2021/07/20 09:11:57;;;;;;;;;;;;;;;28.07;51.21;99963.97;1779572;79;20250;-38
2021/07/20 09:14:42;;;;;;;;;;;;;;;28.08;51.20;99956.39;1777366;79;21144;-38
2021/07/20 09:17:17;;;;;;;;;;;;;;;28.08;51.17;99959.19;1781186;79;20291;-38
2021/07/20 09:20:05;;;;;;;;;;;;;;;28.09;51.11;99959.40;1780943;79;20242;-38
2021/07/20 09:22:39;;;;;;;;;;;;;;;28.08;51.05;99962.79;1783331;79;20443;-38
2021/07/20 09:25:09;;;;;;;;;;;;;;;28.07;50.98;99963.97;1777243;79;20229;-39
2021/07/20 09:27:41;;;;;;;;;;;;;;;28.07;50.93;99963.97;1782172;79;23275;-38
2021/07/20 09:30:10;;;;;;;;;;;;;;;28.07;50.86;99957.57;1778377;79;20673;-38
2021/07/20 09:32:42;;;;;;;;;;;;;;;28.07;50.81;99962.58;1779988;80;20187;-38
2021/07/20 09:35:15;;;;;;;;;;;;;;;28.06;50.75;99958.76;1780768;80;20234;-39
2021/07/20 09:38:04;;;;;;;;;;;;;;;28.05;50.70;99952.36;1776242;79;20266;-39
2021/07/20 09:40:52;;;;;;;;;;;;;;;28.05;50.65;99957.17;1779553;79;21141;-39
2021/07/20 09:43:27;;;;;;;;;;;;;;;28.04;50.59;99956.95;1777074;79;20210;-39
2021/07/20 09:45:57;;;;;;;;;;;;;;;28.03;50.52;99958.95;1782995;79;20193;-39
2021/07/20 09:48:32;;;;;;;;;;;;;;;28.03;50.49;99955.34;1780991;79;20207;-38
2021/07/20 09:51:23;;;;;;;;;;;;;;;28.02;50.44;99948.95;1781386;79;20183;-39
2021/07/20 09:54:17;;;;;;;;;;;;;;;28.02;50.39;99948.95;1778510;79;22148;-40
2021/07/20 09:57:06;;;;;;;;;;;;;;;28.02;50.34;99953.14;1782259;79;20461;-39
2021/07/20 10:00:03;;;;;;;;;;;;;;;28.03;50.27;99964.55;1780651;79;20517;-39
2021/07/20 10:02:36;;;;;;;;;;;;;;;28.02;50.21;99954.54;1783060;79;20543;-39
2021/07/20 10:05:17;;;;;;;;;;;;;;;28.02;50.16;99946.16;1775872;80;20594;-40
2021/07/20 10:07:59;;;;;;;;;;;;;;;28.02;50.12;99941.95;1778626;80;22052;-39
2021/07/20 10:10:33;;;;;;;;;;;;;;;28.03;50.09;99944.97;1778742;79;20181;-39
2021/07/20 10:13:15;;;;;;;;;;;;;;;28.04;50.05;99947.98;1779531;79;20221;-39
2021/07/20 10:15:50;;;;;;;;;;;;;;;28.04;49.99;99947.17;1781938;79;20422;-39
2021/07/20 10:18:22;;;;;;;;;;;;;;;28.05;49.93;99949.56;1777490;79;20173;-39
2021/07/20 10:20:51;;;;;;;;;;;;;;;28.04;49.86;99945.19;1785292;79;22021;-39
2021/07/20 10:23:24;;;;;;;;;;;;;;;28.04;49.83;99942.39;1779857;79;20223;-38
2021/07/20 10:26:00;;;;;;;;;;;;;;;28.04;49.77;99950.77;1779702;80;20261;-39
2021/07/20 10:28:32;;;;;;;;;;;;;;;28.05;49.74;99948.16;1781200;79;21646;-38
2021/07/20 10:31:08;;;;;;;;;;;;;;;28.06;49.68;99946.98;1779563;80;20227;-39
2021/07/20 10:33:37;;;;;;;;;;;;;;;28.07;49.61;99946.39;1775237;79;21078;-39
2021/07/20 10:36:05;;;;;;;;;;;;;;;28.07;49.59;99944.98;1773169;79;20172;-38
2021/07/20 10:38:41;;;;;;;;;;;;;;;28.09;49.54;99948.22;1778865;79;20230;-39
2021/07/20 10:41:07;;;;;;;;;;;;;;;28.12;49.50;99946.06;1776541;80;20268;-39
2021/07/20 10:44:02;;;;;;;;;;;;;;;28.12;49.43;99946.06;1750885;80;20168;-39
2021/07/20 10:46:30;;;;;;;;;;;;;;;28.12;49.35;99937.67;1781240;79;22172;-39
2021/07/20 10:48:59;;;;;;;;;;;;;;;28.10;49.29;99935.25;1757251;80;20313;-39
2021/07/20 10:51:26;;;;;;;;;;;;;;;28.12;49.24;99938.47;1775589;80;20508;-39
2021/07/20 10:54:11;;;;;;;;;;;;;;;28.12;49.18;99940.47;1781802;79;20192;-40
2021/07/20 10:56:45;;;;;;;;;;;;;;;28.12;49.14;99936.27;1787344;80;20485;-39
2021/07/20 10:59:31;;;;;;;;;;;;;;;28.12;49.11;99923.69;1787746;80;21023;-38
2021/07/20 11:02:18;;;;;;;;;;;;;;;28.13;49.04;99923.90;1753485;79;20146;-39
2021/07/20 11:04:46;;;;;;;;;;;;;;;28.11;48.74;99922.08;1781278;78;20160;-37
2021/07/20 11:07:25;;;;;;;;;;;;;;;28.00;48.31;99913.59;1747970;80;20226;-40
2021/07/20 11:09:50;;;;;;;;;;;;;;;27.91;48.10;99909.53;1770409;80;20203;-39
2021/07/20 11:12:16;;;;;;;;;;;;;;;27.83;47.92;99907.29;1789685;78;21127;-42
2021/07/20 11:14:49;;;;;;;;;;;;;;;27.76;47.79;99907.22;1761226;81;20282;-39
2021/07/20 11:17:17;;;;;;;;;;;;;;;27.74;47.69;99900.42;1759125;80;20147;-40
2021/07/20 11:19:44;;;;;;;;;;;;;;;27.69;47.53;99891.80;1762431;80;20486;-39
2021/07/20 11:22:10;;;;;;;;;;;;;;;27.67;47.41;99885.78;1760843;80;20213;-39
2021/07/20 11:24:36;;;;;;;;;;;;;;;27.63;47.28;99891.34;1787875;78;21116;-39
2021/07/20 11:27:02;;;;;;;;;;;;;;;27.61;47.14;99890.14;1761376;78;20201;-38
2021/07/20 11:29:30;;;;;;;;;;;;;;;27.57;47.02;99888.72;1741695;80;20344;-39
2021/07/20 11:31:58;;;;;;;;;;;;;;;27.54;46.93;99888.70;1786978;78;20103;-39
2021/07/20 11:34:30;;;;;;;;;;;;;;;27.53;46.84;99882.89;1757269;80;20168;-39
2021/07/20 11:37:00;;;;;;;;;;;;;;;27.52;46.72;99882.68;1787098;79;21139;-38
2021/07/20 11:39:28;;;;;;;;;;;;;;;27.51;46.59;99875.48;1758080;80;20160;-39
2021/07/20 11:42:14;;;;;;;;;;;;;;;27.49;46.48;99873.69;1786828;79;20144;-39
2021/07/20 11:44:55;;;;;;;;;;;;;;;27.46;46.36;99869.63;1762029;80;20338;-39
2021/07/20 11:47:45;;;;;;;;;;;;;;;27.44;46.22;99869.22;1787713;79;20309;-39
2021/07/20 11:50:30;;;;;;;;;;;;;;;27.42;46.10;99871.59;1786451;79;21134;-39
2021/07/20 11:53:23;;;;;;;;;;;;;;;27.42;46.00;99874.97;1779195;78;20180;-39
2021/07/20 11:55:58;;;;;;;;;;;;;;;27.41;45.88;99871.41;1752478;79;20193;-39
2021/07/20 11:58:27;;;;;;;;;;;;;;;27.42;45.76;99866.59;1751978;80;20231;-39
2021/07/20 12:01:09;;;;;;;;;;;;;;;27.42;45.66;99863.80;1754108;80;20247;-39
2021/07/20 12:04:06;;;;;;;;;;;;;;;27.43;45.56;99869.59;1748200;80;21132;-39
2021/07/20 12:06:39;;;;;;;;;;;;;;;27.45;45.46;99865.84;1755375;80;20498;-39
2021/07/20 12:09:23;;;;;;;;;;;;;;;27.46;45.33;99866.02;1754546;80;20470;-39
2021/07/20 12:11:50;;;;;;;;;;;;;;;27.46;45.25;99861.83;1751933;80;20318;-39
2021/07/20 12:14:17;;;;;;;;;;;;;;;27.48;45.12;99865.09;1756472;80;20231;-39
2021/07/20 12:16:45;;;;;;;;;;;;;;;27.48;45.00;99858.91;1752012;80;21164;-39
2021/07/20 12:19:11;;;;;;;;;;;;;;;27.49;44.91;99866.70;1751283;80;20240;-38
2021/07/20 12:21:39;;;;;;;;;;;;;;;27.49;44.84;99856.33;1755264;80;20219;-39
2021/07/20 12:24:08;;;;;;;;;;;;;;;27.48;44.76;99856.12;1749180;80;20267;-39
2021/07/20 12:26:34;;;;;;;;;;;;;;;27.49;44.67;99863.31;1751458;80;20466;-39
2021/07/20 12:29:01;;;;;;;;;;;;;;;27.51;44.60;99860.11;1755086;80;21877;-39
2021/07/20 12:31:33;;;;;;;;;;;;;;;27.53;44.49;99857.16;1750796;80;20208;-39
2021/07/20 12:33:59;;;;;;;;;;;;;;;27.52;44.42;99857.53;1749223;80;20226;-39
2021/07/20 12:36:25;;;;;;;;;;;;;;;27.52;44.36;99854.15;1752608;81;20315;-39
2021/07/20 12:39:06;;;;;;;;;;;;;;;27.52;44.30;99849.96;1757743;80;20178;-38
2021/07/20 12:41:34;;;;;;;;;;;;;;;27.54;44.28;99855.95;1730741;80;21136;-40
2021/07/20 12:44:00;;;;;;;;;;;;;;;27.56;44.19;99845.20;1756447;80;20915;-39
2021/07/20 12:46:28;;;;;;;;;;;;;;;27.58;44.17;99845.59;1699325;81;20203;-40
2021/07/20 12:48:54;;;;;;;;;;;;;;;27.59;44.13;99842.21;1757316;80;21338;-40
2021/07/20 12:51:22;;;;;;;;;;;;;;;27.60;44.08;99847.42;1752939;80;20398;-39
2021/07/20 12:53:50;;;;;;;;;;;;;;;27.61;44.07;99846.83;1755548;80;21137;-40
2021/07/20 12:56:26;;;;;;;;;;;;;;;27.63;44.02;99837.45;1755357;80;20604;-40
2021/07/20 12:59:05;;;;;;;;;;;;;;;27.65;43.99;99837.88;1760113;80;20228;-40